Terminal Aerodrome Forecast
Issued by NWS

Home | Current Version | Previous Version | Text Only | Print | Product List | Glossary On
Versions: 1 2 3 4 5 6 7 8 9 10 11 12 13 14
000
FTUS46 KMFR 040543
TAFRBG
TAF
KRBG 040543Z 0406/0506 34003KT P6SM SCT040
     FM041200 00000KT P6SM SCT030
     FM041900 35007KT P6SM BKN040 BKN050
     FM042100 35009KT P6SM VCSH SCT050 BKN060
     FM050300 34004KT P6SM SCT050 SCT060=

USA.gov is the U.S. government's official web portal to all federal, state and local government web resources and services.